createdAt,value
2023-06-07T02:19:56.474Z,57.10
2023-06-07T05:02:27.908Z,55.92
2023-06-07T05:06:32.334Z,56.90
2023-06-07T05:10:35.886Z,56.40
2023-06-07T05:14:41.526Z,56.70
2023-06-07T05:18:47.565Z,56.25
2023-06-07T05:22:50.621Z,54.90
2023-06-07T05:26:53.592Z,55.63
2023-06-07T05:30:57.996Z,56.08
2023-06-07T05:35:01.143Z,57.05
2023-06-07T05:39:04.359Z,56.60
2023-06-07T05:43:07.503Z,55.13
2023-06-07T05:47:12.062Z,56.63
2023-06-07T05:51:15.364Z,57.03
2023-06-07T05:55:18.338Z,56.53
2023-06-07T05:59:21.472Z,56.45
2023-06-07T06:03:26.947Z,56.53
2023-06-07T06:07:30.069Z,55.73
2023-06-07T06:11:33.370Z,55.95
2023-06-07T06:15:37.126Z,56.67
2023-06-07T06:19:42.733Z,55.63
2023-06-07T06:23:45.784Z,55.45
2023-06-07T06:27:48.979Z,54.90
2023-06-07T06:31:52.101Z,55.45
2023-06-07T06:35:56.454Z,57.00
2023-06-07T06:40:00.024Z,56.75
2023-06-07T06:44:04.184Z,55.50
2023-06-07T06:48:08.061Z,56.20
2023-06-07T06:52:12.475Z,56.65
2023-06-07T06:56:16.107Z,57.10
2023-06-07T07:00:20.219Z,56.45
2023-06-07T07:04:23.451Z,56.90
2023-06-07T07:08:28.179Z,57.25
2023-06-07T07:12:31.283Z,56.43
2023-06-07T07:16:36.919Z,56.43
2023-06-07T07:20:41.766Z,56.40
2023-06-07T07:24:46.590Z,55.55
2023-06-07T07:28:49.712Z,56.43
2023-06-07T07:32:52.845Z,56.70
2023-06-07T07:36:58.629Z,55.83
2023-06-07T07:41:02.999Z,56.05
2023-06-07T07:45:06.839Z,56.15
2023-06-07T07:49:10.559Z,56.20
2023-06-07T07:53:14.314Z,55.70
2023-06-07T07:57:18.978Z,55.90
2023-06-07T08:01:22.973Z,55.00
2023-06-07T08:05:25.963Z,56.00
2023-06-07T08:09:29.003Z,55.60
2023-06-07T08:13:33.360Z,56.20
2023-06-07T08:17:36.393Z,56.00
2023-06-07T08:21:39.646Z,55.87
2023-06-07T08:25:42.953Z,56.35
2023-06-07T08:29:47.266Z,56.33
2023-06-07T08:33:50.772Z,55.97
2023-06-07T08:37:53.835Z,55.95
2023-06-07T08:41:57.437Z,55.80
2023-06-07T08:46:04.670Z,56.87
2023-06-07T08:50:13.704Z,56.90
2023-06-07T08:54:19.867Z,56.43
2023-06-07T08:58:25.912Z,56.10
2023-06-07T09:02:30.612Z,56.40
2023-06-07T09:06:35.540Z,55.57
2023-06-07T09:10:38.592Z,56.30
2023-06-07T09:14:42.266Z,56.50
2023-06-07T09:18:48.712Z,56.05
2023-06-07T09:23:04.184Z,56.40
2023-06-07T09:27:09.194Z,56.10
2023-06-07T09:31:12.432Z,57.15
2023-06-07T09:35:18.964Z,55.20
2023-06-07T09:39:23.324Z,56.33
2023-06-07T09:43:26.335Z,56.37
2023-06-07T09:47:29.652Z,56.47
2023-06-07T09:51:42.440Z,56.75
2023-06-07T09:55:45.445Z,56.90
2023-06-07T09:59:59.494Z,56.85
2023-06-07T10:04:03.750Z,56.33
2023-06-07T10:08:10.540Z,57.20
2023-06-07T10:12:15.613Z,57.10
2023-06-07T10:16:20.044Z,56.83
2023-06-07T10:20:26.904Z,57.40
2023-06-07T10:24:34.839Z,57.55
2023-06-07T10:28:43.007Z,56.90
2023-06-07T10:32:48.818Z,57.20
2023-06-07T10:36:51.982Z,56.05
2023-06-07T10:40:58.628Z,57.40
2023-06-07T10:45:01.828Z,56.70
2023-06-07T10:49:05.435Z,57.65
2023-06-07T10:53:13.150Z,57.70
2023-06-07T10:57:33.321Z,57.20
2023-06-07T11:01:36.584Z,56.15
2023-06-07T11:06:07.649Z,57.50
2023-06-07T11:10:35.932Z,58.10
2023-06-07T11:14:40.387Z,57.95
2023-06-07T11:19:01.608Z,57.50
2023-06-07T11:23:20.611Z,57.50
2023-06-07T11:27:23.998Z,56.30
2023-06-07T11:31:28.511Z,57.90
2023-06-07T11:35:32.916Z,57.88
2023-06-07T11:39:36.071Z,57.75
2023-06-07T11:43:39.174Z,57.57
2023-06-07T11:47:43.518Z,57.95
2023-06-07T11:51:50.904Z,57.70
2023-06-07T11:55:57.111Z,58.45
2023-06-07T12:00:00.340Z,57.40
2023-06-07T12:04:04.988Z,56.80
2023-06-07T12:08:12.036Z,57.45
2023-06-07T12:12:16.796Z,58.20
2023-06-07T12:16:22.233Z,57.95
2023-06-07T12:20:29.062Z,55.85
2023-06-07T12:24:37.769Z,56.70
2023-06-07T12:28:43.302Z,54.13
2023-06-07T12:36:51.925Z,59.42
2023-06-07T12:40:55.074Z,58.00
2023-06-07T12:44:58.180Z,57.08
2023-06-07T12:49:01.286Z,57.30
2023-06-07T12:53:05.737Z,57.05
2023-06-07T12:57:09.472Z,57.83
2023-06-07T13:01:12.692Z,56.67
2023-06-07T13:05:16.181Z,57.92
2023-06-07T13:09:21.448Z,58.47
2023-06-07T13:13:24.614Z,57.77
2023-06-07T13:17:27.731Z,56.80
2023-06-07T13:21:31.179Z,57.70
2023-06-07T13:25:35.777Z,58.17
2023-06-07T13:29:39.452Z,57.87
2023-06-07T13:33:43.158Z,57.73
2023-06-07T13:37:46.332Z,58.22
2023-06-07T13:41:51.203Z,57.63
2023-06-07T13:45:54.497Z,57.87
2023-06-07T13:49:57.637Z,58.33
2023-06-07T13:54:00.620Z,57.23
2023-06-07T13:58:04.973Z,57.50
2023-06-07T14:02:11.174Z,57.90
2023-06-07T14:06:14.193Z,57.90
2023-06-07T14:10:17.471Z,57.50
2023-06-07T14:14:22.263Z,57.57
2023-06-07T14:18:25.220Z,57.80
2023-06-07T14:22:28.363Z,58.30
2023-06-07T14:26:31.405Z,58.30
2023-06-07T14:30:35.879Z,57.50
2023-06-07T14:34:38.869Z,57.75
2023-06-07T14:38:41.842Z,56.35
2023-06-07T14:42:44.805Z,57.10
2023-06-07T14:46:49.139Z,57.60
2023-06-07T14:50:52.089Z,57.90
2023-06-07T14:54:55.307Z,57.87
2023-06-07T14:58:58.383Z,57.40
2023-06-07T15:03:02.814Z,58.05
2023-06-07T15:07:06.837Z,58.20
2023-06-07T15:11:09.905Z,57.85
2023-06-07T15:15:15.777Z,58.23
2023-06-07T15:19:20.154Z,58.40
2023-06-07T15:23:23.260Z,57.60
2023-06-07T15:27:26.299Z,57.90
2023-06-07T15:31:29.308Z,58.50
2023-06-07T15:35:33.678Z,56.95
2023-06-07T15:39:36.633Z,58.40
2023-06-07T15:43:39.651Z,58.50
2023-06-07T15:47:42.756Z,57.70
2023-06-07T15:51:47.485Z,58.30
2023-06-07T15:55:50.526Z,57.20
2023-06-07T15:59:53.533Z,57.65
2023-06-07T16:03:57.218Z,56.90
2023-06-07T16:08:07.207Z,56.70
2023-06-07T16:12:15.955Z,58.10
2023-06-07T16:16:19.298Z,58.47
2023-06-07T16:20:22.951Z,58.10
2023-06-07T16:24:29.304Z,55.65
2023-06-07T16:28:32.616Z,58.00
2023-06-07T16:32:35.954Z,58.85
2023-06-07T16:36:40.073Z,58.00
2023-06-07T16:40:44.834Z,58.25
2023-06-07T16:44:48.158Z,57.80
2023-06-07T16:48:51.476Z,57.60
2023-06-07T16:52:54.830Z,57.90
2023-06-07T16:57:00.245Z,58.55
2023-06-07T17:01:03.255Z,57.25
2023-06-07T17:05:07.088Z,58.30
2023-06-07T17:09:10.182Z,58.40
2023-06-07T17:13:14.552Z,57.30
2023-06-07T17:17:17.586Z,57.90
2023-06-07T17:21:20.703Z,57.80
2023-06-07T21:04:35.953Z,57.75
2023-06-07T21:08:39.308Z,57.20
2023-06-07T21:12:42.351Z,58.13
2023-06-07T21:16:48.538Z,58.10
2023-06-07T21:20:51.742Z,58.03
2023-06-07T21:24:54.755Z,57.70
2023-06-07T21:28:57.751Z,57.37
2023-06-07T21:33:04.725Z,57.77
2023-06-07T21:37:08.024Z,57.00
2023-06-07T21:41:11.184Z,58.40
2023-06-07T21:45:14.180Z,57.75
2023-06-07T21:49:18.585Z,57.50
2023-06-07T21:53:21.572Z,57.60
2023-06-07T21:57:25.494Z,58.83
2023-06-07T22:01:28.582Z,58.50
2023-06-07T22:05:33.019Z,58.50
2023-06-07T22:09:36.625Z,57.93
2023-06-07T22:13:40.624Z,57.10
2023-06-07T22:17:45.003Z,58.00
2023-06-07T22:21:49.683Z,58.70
2023-06-07T22:25:53.704Z,58.05
2023-06-07T22:29:58.695Z,58.33
2023-06-07T22:34:04.094Z,57.50
2023-06-07T22:38:13.335Z,57.80
2023-06-07T22:42:16.732Z,59.10
2023-06-07T22:46:19.746Z,59.53
2023-06-07T22:50:22.935Z,58.00
2023-06-07T22:54:28.761Z,58.73
2023-06-07T22:58:32.077Z,58.40
